Time;durP1;ratioP1;P1;durP2;ratioP2;P2;SDS_P1;SDS_P2;PMS_P1;PMS_P2;Temp;Humidity;BMP_temperature;BMP_pressure;BME280_temperature;BME280_humidity;BME280_pressure;Samples;Min_cycle;Max_cycle;Signal;HPM_P1;HPM_P2
2023/07/19 00:03:42;;;;;;;10.90;3.85;;;;;;;15.82;100.00;101354.41;10414371;28;20033;-68
2023/07/19 00:08:42;;;;;;;7.78;3.85;;;;;;;15.77;100.00;101357.16;10379798;28;20065;-68
2023/07/19 00:13:43;;;;;;;5.90;3.80;;;;;;;15.77;100.00;101348.00;10396266;28;20092;-68
2023/07/19 00:18:43;;;;;;;7.78;4.10;;;;;;;15.73;100.00;101347.75;10361276;28;20049;-68
2023/07/19 00:23:44;;;;;;;8.38;5.45;;;;;;;15.74;100.00;101338.28;10355461;28;20067;-67
2023/07/19 00:28:44;;;;;;;11.85;4.65;;;;;;;15.72;100.00;101327.47;10356459;28;20099;-67
2023/07/19 00:33:45;;;;;;;5.85;3.72;;;;;;;15.62;100.00;101307.19;10356850;28;20041;-68
2023/07/19 00:38:46;;;;;;;4.65;3.53;;;;;;;15.62;100.00;101323.81;10289555;28;20030;-67
2023/07/19 00:43:47;;;;;;;6.65;3.80;;;;;;;15.59;100.00;101316.06;10335919;28;20053;-68
2023/07/19 00:48:48;;;;;;;6.88;4.07;;;;;;;15.60;100.00;101329.66;10347421;28;20062;-68
2023/07/19 00:53:49;;;;;;;5.47;3.97;;;;;;;15.59;100.00;101310.53;10314833;28;20141;-68
2023/07/19 00:58:49;;;;;;;7.40;3.80;;;;;;;15.54;100.00;101311.34;10330408;28;20054;-66
2023/07/19 01:03:50;;;;;;;6.07;3.80;;;;;;;15.50;100.00;101311.06;10313834;28;20050;-67
2023/07/19 01:08:51;;;;;;;6.10;3.78;;;;;;;15.41;100.00;101295.25;10297775;28;20102;-68
2023/07/19 01:13:52;;;;;;;6.70;4.18;;;;;;;15.45;100.00;101307.47;10332804;28;20061;-68
2023/07/19 01:18:53;;;;;;;7.90;3.60;;;;;;;15.40;100.00;101299.97;10337847;28;20045;-67
2023/07/19 01:23:53;;;;;;;6.63;4.20;;;;;;;15.40;100.00;101293.56;10352928;28;20050;-68
2023/07/19 01:28:57;;;;;;;8.73;4.03;;;;;;;15.38;100.00;101296.63;10336178;28;20042;-68
2023/07/19 01:33:58;;;;;;;7.22;4.07;;;;;;;15.35;100.00;101288.84;10337944;28;20046;-68
2023/07/19 01:38:58;;;;;;;5.72;3.53;;;;;;;15.40;100.00;101293.56;10371561;28;20042;-67
2023/07/19 01:43:59;;;;;;;5.72;3.63;;;;;;;15.28;100.00;101279.97;10391875;28;20042;-68
2023/07/19 01:49:00;;;;;;;7.82;4.22;;;;;;;15.38;100.00;101285.53;10335973;28;20054;-67
2023/07/19 01:54:00;;;;;;;11.85;4.97;;;;;;;15.37;100.00;101272.75;10338454;28;20409;-68
2023/07/19 01:59:01;;;;;;;7.70;3.95;;;;;;;15.29;100.00;101268.59;10368717;28;20057;-68
2023/07/19 02:04:02;;;;;;;4.78;3.67;;;;;;;15.33;100.00;101266.94;10336250;28;20093;-68
2023/07/19 02:09:02;;;;;;;6.40;4.85;;;;;;;15.31;100.00;101260.00;10345877;28;20053;-67
2023/07/19 02:14:03;;;;;;;10.27;5.70;;;;;;;15.35;100.00;101247.25;10405062;28;20041;-68
2023/07/19 02:19:05;;;;;;;8.75;5.47;;;;;;;15.27;100.00;101250.56;10390536;28;20515;-67
2023/07/19 02:24:06;;;;;;;12.98;5.03;;;;;;;15.30;100.00;101250.84;10376155;28;20044;-67
2023/07/19 02:29:06;;;;;;;9.10;5.40;;;;;;;15.22;100.00;101243.09;10427382;28;22015;-67
2023/07/19 02:34:07;;;;;;;9.65;6.15;;;;;;;15.28;100.00;101241.16;10355763;28;20050;-68
2023/07/19 02:39:07;;;;;;;7.80;5.55;;;;;;;15.27;100.00;101229.19;10366477;28;20042;-67
2023/07/19 02:44:08;;;;;;;7.22;5.15;;;;;;;15.27;100.00;101229.19;10391996;28;20117;-67
2023/07/19 02:49:09;;;;;;;8.52;6.03;;;;;;;15.31;100.00;101237.81;10372593;28;20056;-67
2023/07/19 02:54:10;;;;;;;9.82;6.13;;;;;;;15.31;100.00;101227.53;10374570;28;20034;-67
2023/07/19 02:59:10;;;;;;;9.32;5.93;;;;;;;15.26;100.00;101210.09;10356988;28;20074;-67
2023/07/19 03:04:12;;;;;;;12.57;6.60;;;;;;;15.26;100.00;101221.19;10357204;28;20049;-67
2023/07/19 03:09:15;;;;;;;8.93;6.30;;;;;;;15.24;100.00;101221.44;10356764;28;20037;-67
2023/07/19 03:14:15;;;;;;;10.75;6.60;;;;;;;15.22;100.00;101222.84;10361651;28;20037;-68
2023/07/19 03:19:16;;;;;;;7.55;5.57;;;;;;;15.09;100.00;101222.28;10340165;28;20553;-67
2023/07/19 03:24:16;;;;;;;8.98;5.65;;;;;;;15.11;100.00;101216.44;10356986;28;20490;-67
2023/07/19 03:29:17;;;;;;;9.30;6.05;;;;;;;15.03;100.00;101228.09;10389349;28;20042;-67
2023/07/19 03:34:17;;;;;;;9.65;5.63;;;;;;;15.05;100.00;101223.94;10389291;28;20081;-67
2023/07/19 03:39:18;;;;;;;8.32;5.65;;;;;;;15.02;100.00;101227.25;10409846;28;20043;-67
2023/07/19 03:44:19;;;;;;;9.63;6.47;;;;;;;14.77;100.00;101185.66;10376161;28;20061;-67
2023/07/19 03:49:20;;;;;;;9.43;5.80;;;;;;;15.02;100.00;101221.69;10339416;28;20128;-68
2023/07/19 03:54:20;;;;;;;13.43;6.82;;;;;;;15.01;100.00;101216.47;10358150;28;20489;-68
2023/07/19 03:59:21;;;;;;;8.68;6.50;;;;;;;15.05;100.00;101212.84;10374980;28;20046;-67
2023/07/19 04:04:21;;;;;;;9.43;7.28;;;;;;;15.06;100.00;101206.19;10355711;28;20117;-67
2023/07/19 04:09:22;;;;;;;10.60;7.55;;;;;;;15.16;100.00;101215.63;10323823;28;20037;-67
2023/07/19 04:14:22;;;;;;;9.73;6.22;;;;;;;15.18;100.00;101216.19;10339187;28;20041;-67
2023/07/19 04:19:23;;;;;;;12.43;7.25;;;;;;;15.23;100.00;101210.63;10391782;28;20101;-67
2023/07/19 04:24:23;;;;;;;9.68;7.65;;;;;;;15.25;100.00;101213.94;10364447;28;20443;-67
2023/07/19 04:29:24;;;;;;;11.27;8.23;;;;;;;15.24;100.00;101206.75;10368688;28;20121;-67
2023/07/19 04:34:24;;;;;;;11.63;7.28;;;;;;;15.30;100.00;101206.47;10372607;28;20022;-67
2023/07/19 04:39:25;;;;;;;12.85;8.05;;;;;;;15.33;100.00;101205.06;10339006;28;20054;-67
2023/07/19 04:44:25;;;;;;;13.95;8.38;;;;;;;15.39;100.00;101206.72;10342775;28;20437;-67
2023/07/19 04:49:26;;;;;;;12.35;7.32;;;;;;;15.46;100.00;101221.19;10377605;28;20112;-68
2023/07/19 04:54:26;;;;;;;9.02;7.35;;;;;;;15.53;100.00;101209.78;10362313;28;20128;-67
2023/07/19 04:59:27;;;;;;;13.68;7.05;;;;;;;15.62;100.00;101212.81;10378304;28;20041;-67
2023/07/19 05:04:27;;;;;;;10.50;7.72;;;;;;;15.76;100.00;101216.72;10352245;28;20133;-67
2023/07/19 05:09:28;;;;;;;9.35;6.25;;;;;;;15.80;100.00;101209.47;10336851;28;20567;-68
2023/07/19 05:14:29;;;;;;;8.90;6.10;;;;;;;15.78;100.00;101211.72;10364951;28;20069;-67
2023/07/19 05:19:29;;;;;;;9.65;6.07;;;;;;;15.84;100.00;101209.75;10378196;28;20037;-67
2023/07/19 05:24:30;;;;;;;10.05;6.05;;;;;;;15.90;100.00;101203.91;10395057;28;20033;-67
2023/07/19 05:29:31;;;;;;;8.48;5.65;;;;;;;16.08;100.00;101215.50;10347404;28;20038;-67
2023/07/19 05:34:32;;;;;;;8.90;5.72;;;;;;;16.21;100.00;101223.25;10320063;28;20042;-67
2023/07/19 05:39:35;;;;;;;10.82;6.68;;;;;;;16.30;100.00;101221.53;10300608;28;20042;-67
2023/07/19 05:44:36;;;;;;;8.40;6.32;;;;;;;16.31;100.00;101209.31;10350924;28;20049;-67
2023/07/19 05:49:36;;;;;;;9.93;5.65;;;;;;;16.34;100.00;101205.94;10368471;28;20489;-67
2023/07/19 05:54:38;;;;;;;9.40;6.10;;;;;;;16.44;100.00;101212.59;10343643;28;20088;-68
2023/07/19 05:59:38;;;;;;;15.68;6.40;;;;;;;16.49;100.00;101234.78;10328979;28;20057;-67
2023/07/19 06:04:39;;;;;;;7.63;5.38;;;;;;;16.43;100.00;101222.03;10295040;28;20507;-67
2023/07/19 06:09:39;;;;;;;13.80;6.05;;;;;;;16.39;100.00;101209.81;10326713;28;20058;-67
2023/07/19 06:14:40;;;;;;;14.63;5.72;;;;;;;16.50;100.00;101226.16;10321976;28;20509;-66
2023/07/19 06:19:41;;;;;;;10.75;5.55;;;;;;;16.64;100.00;101222.75;10309053;28;20046;-68
2023/07/19 06:24:41;;;;;;;8.10;5.40;;;;;;;16.80;100.00;101221.53;10356989;28;20117;-67
2023/07/19 06:29:44;;;;;;;8.02;4.95;;;;;;;16.99;100.00;101229.22;10350222;28;20045;-68
2023/07/19 06:34:45;;;;;;;6.63;4.45;;;;;;;17.03;100.00;101220.03;10367419;28;20037;-68
2023/07/19 06:39:46;;;;;;;7.95;4.35;;;;;;;17.13;100.00;101231.06;10339748;28;20058;-68
2023/07/19 06:44:47;;;;;;;7.78;4.20;;;;;;;17.03;100.00;101220.03;10324717;28;20687;-67
2023/07/19 06:49:48;;;;;;;8.55;5.07;;;;;;;17.03;100.00;101214.47;10327062;28;20120;-66
2023/07/19 06:54:48;;;;;;;4.68;3.63;;;;;;;17.11;100.00;101227.75;10326598;28;20495;-67
2023/07/19 06:59:52;;;;;;;7.05;4.63;;;;;;;17.06;100.00;101235.31;10339571;28;20058;-67
2023/07/19 07:04:52;;;;;;;8.73;4.80;;;;;;;16.96;100.00;101230.66;10333346;28;20045;-67
2023/07/19 07:09:53;;;;;;;9.65;4.25;;;;;;;16.77;100.00;101227.69;10361599;28;20074;-67
2023/07/19 07:14:54;;;;;;;6.00;2.78;;;;;;;16.61;100.00;101215.81;10380472;28;20049;-68
2023/07/19 07:19:54;;;;;;;3.63;2.33;;;;;;;16.61;100.00;101224.16;10382959;28;20045;-67
2023/07/19 07:24:55;;;;;;;3.97;2.13;;;;;;;16.60;100.00;101233.63;10358710;28;20084;-68
2023/07/19 07:29:57;;;;;;;6.00;1.58;;;;;;;16.66;100.00;101221.38;10370870;28;20041;-67
2023/07/19 07:34:58;;;;;;;3.63;1.30;;;;;;;16.84;100.00;101221.84;10319584;28;20069;-68
2023/07/19 07:39:58;;;;;;;2.67;1.00;;;;;;;17.13;100.00;101219.13;10399572;28;20077;-68
2023/07/19 07:44:59;;;;;;;5.63;1.52;;;;;;;17.48;100.00;101231.91;10340714;28;20038;-67
2023/07/19 07:50:02;;;;;;;4.47;1.33;;;;;;;17.70;100.00;101230.59;10415442;28;20060;-67
2023/07/19 07:55:05;;;;;;;3.55;1.40;;;;;;;17.62;100.00;101220.91;10397167;28;20038;-68
2023/07/19 08:00:06;;;;;;;1.77;1.08;;;;;;;17.63;100.00;101228.16;10397956;28;20044;-68
2023/07/19 08:05:07;;;;;;;5.40;1.65;;;;;;;17.72;100.00;101222.78;10379601;28;20132;-68
2023/07/19 08:10:08;;;;;;;3.65;1.67;;;;;;;18.03;100.00;101225.25;10395934;28;20067;-68
2023/07/19 08:15:09;;;;;;;2.97;1.40;;;;;;;18.51;100.00;101219.66;10364231;28;20034;-67
2023/07/19 08:20:10;;;;;;;3.83;1.10;;;;;;;19.08;100.00;101214.94;10415852;28;20033;-68
2023/07/19 08:25:10;;;;;;;2.83;1.00;;;;;;;19.17;100.00;101200.28;10412753;28;20033;-68
2023/07/19 08:30:17;;;;;;;5.38;1.45;;;;;;;18.95;100.00;101193.38;10394770;28;20493;-68
2023/07/19 08:35:18;;;;;;;3.60;1.50;;;;;;;19.04;100.00;101205.50;10361679;28;20038;-68
2023/07/19 08:40:19;;;;;;;4.05;1.35;;;;;;;19.41;100.00;101209.38;10415019;28;20091;-68
2023/07/19 08:45:19;;;;;;;1.17;0.77;;;;;;;19.60;100.00;101200.09;10394329;28;20064;-69
2023/07/19 08:50:20;;;;;;;3.08;0.70;;;;;;;19.56;100.00;101195.13;10380381;28;20451;-68
2023/07/19 08:55:20;;;;;;;2.90;1.08;;;;;;;19.68;100.00;101185.44;10363374;28;20098;-68
2023/07/19 09:00:21;;;;;;;2.90;0.80;;;;;;;20.22;100.00;101188.56;10363251;28;20038;-69
2023/07/19 09:05:22;;;;;;;2.10;0.90;;;;;;;20.43;100.00;101194.53;10411819;28;20041;-70
2023/07/19 09:10:22;;;;;;;3.70;0.65;;;;;;;20.11;100.00;101199.13;10383035;28;20072;-68
2023/07/19 09:15:23;;;;;;;2.53;0.88;;;;;;;19.53;100.00;101190.16;10384383;28;20048;-68
2023/07/19 09:20:26;;;;;;;3.22;0.77;;;;;;;19.38;100.00;101203.56;10395565;28;20030;-68
2023/07/19 09:25:26;;;;;;;2.38;0.70;;;;;;;19.20;100.00;101175.38;10378720;28;20041;-69
2023/07/19 09:30:27;;;;;;;1.55;0.90;;;;;;;19.67;100.00;101183.75;10422091;28;20053;-68
2023/07/19 09:35:28;;;;;;;2.78;0.85;;;;;;;19.82;100.00;101163.91;10393077;28;20048;-69
2023/07/19 09:40:28;;;;;;;5.43;0.75;;;;;;;20.01;100.00;101176.97;10376671;28;20536;-68
2023/07/19 09:45:29;;;;;;;3.90;0.90;;;;;;;20.27;100.00;101158.50;10388056;28;20120;-68
2023/07/19 09:50:29;;;;;;;1.67;0.85;;;;;;;20.76;100.00;101159.66;10386587;28;20033;-70
2023/07/19 09:55:30;;;;;;;2.15;0.98;;;;;;;20.92;100.00;101162.13;10402627;28;20060;-68
2023/07/19 10:00:31;;;;;;;2.60;1.00;;;;;;;20.83;100.00;101158.41;10415625;28;20041;-67
2023/07/19 10:05:31;;;;;;;2.42;0.80;;;;;;;20.69;100.00;101114.53;10398327;28;20029;-68
2023/07/19 10:10:42;;;;;;;1.38;0.85;;;;;;;21.10;100.00;101161.06;10390995;28;20038;-68
2023/07/19 10:15:50;;;;;;;3.03;0.80;;;;;;;20.64;100.00;101181.78;10407307;28;20057;-67
2023/07/19 10:21:01;;;;;;;6.28;0.90;;;;;;;20.08;100.00;101188.56;10391456;28;20026;-67
2023/07/19 10:26:08;;;;;;;2.40;1.00;;;;;;;19.66;100.00;101196.06;10373825;28;20030;-67
2023/07/19 10:31:11;;;;;;;4.78;1.40;;;;;;;19.53;100.00;101206.06;10375426;28;20041;-68
2023/07/19 10:36:13;;;;;;;3.17;1.63;;;;;;;19.47;100.00;101198.91;10363553;28;20083;-67
2023/07/19 10:41:15;;;;;;;3.47;1.30;;;;;;;19.52;100.00;101188.50;10430859;28;20080;-68
2023/07/19 10:46:18;;;;;;;4.72;1.83;;;;;;;20.17;100.00;101192.28;10397325;28;20440;-68
2023/07/19 10:51:18;;;;;;;4.18;1.20;;;;;;;20.28;100.00;101173.34;10415152;28;20091;-68
2023/07/19 10:56:19;;;;;;;2.15;1.27;;;;;;;20.33;100.00;101188.03;10369821;28;20045;-68
2023/07/19 11:01:20;;;;;;;4.68;1.30;;;;;;;19.98;100.00;101195.19;10413111;28;20037;-69
2023/07/19 11:06:21;;;;;;;3.10;1.38;;;;;;;19.66;100.00;101204.47;10365351;28;20405;-70
2023/07/19 11:11:22;;;;;;;4.07;1.33;;;;;;;19.69;100.00;101203.81;10403321;28;20044;-68
2023/07/19 11:16:25;;;;;;;1.25;1.02;;;;;;;20.52;100.00;101193.47;10426543;28;20053;-68
2023/07/19 11:21:26;;;;;;;4.13;1.10;;;;;;;21.00;100.00;101178.16;10407311;28;20025;-68
2023/07/19 11:26:27;;;;;;;2.05;0.93;;;;;;;20.42;100.00;101190.09;10438956;28;20593;-69
2023/07/19 11:31:35;;;;;;;5.95;0.93;;;;;;;20.24;100.00;101175.94;10404772;28;20041;-69
2023/07/19 11:36:42;;;;;;;1.83;0.90;;;;;;;20.39;100.00;101182.34;10420626;28;20033;-69
2023/07/19 11:41:43;;;;;;;3.22;0.80;;;;;;;21.72;100.00;101182.72;10395700;28;20033;-69
2023/07/19 11:46:44;;;;;;;1.55;0.70;;;;;;;21.98;100.00;101170.78;10383906;28;20041;-69
2023/07/19 11:51:46;;;;;;;3.90;0.80;;;;;;;21.27;100.00;101167.94;10420912;28;20608;-68
2023/07/19 11:56:46;;;;;;;2.22;0.90;;;;;;;21.45;100.00;101174.50;10409185;28;20033;-69
2023/07/19 12:01:47;;;;;;;2.45;0.75;;;;;;;22.35;100.00;101179.84;10404654;28;20036;-69
2023/07/19 12:06:47;;;;;;;1.60;0.60;;;;;;;22.84;100.00;101163.72;10401218;28;20093;-69
2023/07/19 12:11:48;;;;;;;1.98;0.60;;;;;;;22.41;100.00;101161.69;10436962;28;20508;-70
2023/07/19 12:16:48;;;;;;;0.68;0.45;;;;;;;22.52;100.00;101168.63;10405165;28;20041;-69
2023/07/19 12:21:49;;;;;;;2.03;0.45;;;;;;;22.51;100.00;101166.16;10421633;28;20075;-70
2023/07/19 12:26:50;;;;;;;3.45;0.52;;;;;;;22.03;100.00;101167.00;10395785;28;20052;-69
2023/07/19 12:31:50;;;;;;;2.22;0.40;;;;;;;21.81;100.00;101187.53;10396484;28;20037;-65
2023/07/19 12:36:51;;;;;;;2.20;0.57;;;;;;;21.66;100.00;101166.38;10379849;28;20120;-67
2023/07/19 12:41:55;;;;;;;0.95;0.47;;;;;;;21.49;100.00;101165.13;10397033;28;20042;-67
2023/07/19 12:46:55;;;;;;;0.93;0.60;;;;;;;21.60;100.00;101164.84;10421256;28;20287;-66
2023/07/19 12:51:56;;;;;;;2.50;0.40;;;;;;;22.11;100.00;101152.19;10403967;28;20048;-66
2023/07/19 12:56:56;;;;;;;1.48;0.40;;;;;;;23.09;100.00;101159.25;10419509;28;20496;-66
2023/07/19 13:01:57;;;;;;;1.05;0.50;;;;;;;23.24;100.00;101148.66;10436892;28;20044;-67
2023/07/19 13:06:57;;;;;;;2.50;0.52;;;;;;;23.54;100.00;101158.81;10412086;28;20033;-67
2023/07/19 13:11:58;;;;;;;1.15;0.70;;;;;;;22.85;100.00;101170.16;10396460;28;20056;-66
2023/07/19 13:16:58;;;;;;;1.17;0.45;;;;;;;22.33;100.00;101154.91;10347495;28;20046;-68
2023/07/19 13:21:59;;;;;;;0.95;0.40;;;;;;;21.90;100.00;101164.00;10410778;28;20033;-67
2023/07/19 13:27:01;;;;;;;1.85;0.38;;;;;;;21.86;100.00;101165.78;10401502;28;20041;-67
2023/07/19 13:32:02;;;;;;;0.82;0.40;;;;;;;21.45;100.00;101174.50;10386952;28;20044;-67
2023/07/19 13:37:02;;;;;;;1.40;0.40;;;;;;;21.61;100.00;101172.13;10418828;28;20120;-67
2023/07/19 13:42:03;;;;;;;1.52;0.40;;;;;;;23.14;100.00;101169.50;10435702;28;20037;-67
2023/07/19 13:47:04;;;;;;;1.58;0.40;;;;;;;23.69;100.00;101156.59;10360876;28;20041;-67
2023/07/19 13:52:06;;;;;;;1.58;0.50;;;;;;;23.93;95.34;101154.03;10411064;28;20029;-69
2023/07/19 13:57:07;;;;;;;1.25;0.38;;;;;;;22.86;97.18;101161.41;10410458;28;20046;-68
2023/07/19 14:02:07;;;;;;;0.60;0.47;;;;;;;22.08;99.86;101169.69;10361740;28;20053;-66
2023/07/19 14:07:08;;;;;;;0.80;0.17;;;;;;;22.87;99.89;101162.22;10378226;28;20034;-67
2023/07/19 14:12:08;;;;;;;0.82;0.30;;;;;;;24.14;94.89;101151.31;10428202;28;20033;-69
2023/07/19 14:17:09;;;;;;;1.42;0.50;;;;;;;24.40;90.93;101149.47;10434286;28;20832;-67
2023/07/19 14:22:09;;;;;;;1.63;0.30;;;;;;;24.37;89.53;101157.44;10403889;28;20052;-68
2023/07/19 14:27:10;;;;;;;2.30;0.40;;;;;;;22.70;94.67;101157.44;10413113;28;20067;-67
2023/07/19 14:32:11;;;;;;;0.73;0.40;;;;;;;22.99;97.96;101187.66;10435755;28;20040;-67
2023/07/19 14:37:11;;;;;;;4.50;0.57;;;;;;;22.60;94.55;101172.59;10410626;28;20028;-67
2023/07/19 14:42:12;;;;;;;0.95;0.82;;;;;;;22.32;96.68;101186.91;10414871;28;20570;-68
2023/07/19 14:47:14;;;;;;;0.55;0.30;;;;;;;23.27;95.88;101159.22;10385379;28;20109;-69
2023/07/19 14:52:14;;;;;;;1.00;0.40;;;;;;;23.16;90.79;101139.91;10387501;28;20436;-70
2023/07/19 14:57:15;;;;;;;1.08;0.40;;;;;;;22.62;92.85;101167.50;10423977;28;20400;-66
2023/07/19 15:02:15;;;;;;;0.28;0.20;;;;;;;22.15;95.48;101178.44;10409185;28;20052;-68
2023/07/19 15:07:16;;;;;;;0.20;0.20;;;;;;;22.20;97.61;101177.44;10461079;28;20052;-67
2023/07/19 15:12:16;;;;;;;1.73;0.30;;;;;;;23.31;96.96;101158.19;10407732;28;20037;-67
2023/07/19 15:17:17;;;;;;;0.38;0.30;;;;;;;25.40;87.01;101141.97;10408273;28;20119;-68
2023/07/19 15:22:17;;;;;;;0.45;0.20;;;;;;;25.27;84.20;101143.13;10407927;28;20029;-67
2023/07/19 15:27:18;;;;;;;0.22;0.20;;;;;;;24.32;89.11;101151.19;10390386;28;20049;-68
2023/07/19 15:32:18;;;;;;;0.38;0.20;;;;;;;25.26;86.50;101153.59;10441259;28;20028;-67
2023/07/19 15:37:19;;;;;;;0.70;0.30;;;;;;;24.64;84.88;101135.59;10394423;28;20041;-68
2023/07/19 15:42:20;;;;;;;0.52;0.20;;;;;;;24.33;82.85;101145.22;10400990;28;20195;-68
2023/07/19 15:47:21;;;;;;;0.20;0.17;;;;;;;24.67;82.00;101143.34;10423000;28;20072;-68
2023/07/19 15:52:21;;;;;;;2.17;0.20;;;;;;;24.35;82.40;101142.88;10436256;28;20041;-68
2023/07/19 15:57:22;;;;;;;0.60;0.17;;;;;;;24.43;83.52;101148.78;10393892;28;20037;-68
2023/07/19 16:02:22;;;;;;;0.20;0.20;;;;;;;25.53;82.54;101152.13;10422783;28;20128;-68
2023/07/19 16:07:24;;;;;;;2.00;0.40;;;;;;;25.28;80.48;101156.03;10406330;28;20405;-68
2023/07/19 16:12:24;;;;;;;0.40;0.20;;;;;;;23.65;83.74;101153.66;10420862;28;20072;-67
2023/07/19 16:17:25;;;;;;;1.75;0.73;;;;;;;22.50;86.26;101165.31;10404338;28;20104;-68
2023/07/19 16:22:25;;;;;;;0.82;0.30;;;;;;;21.48;89.24;101165.47;10403833;28;20033;-68
2023/07/19 16:27:26;;;;;;;0.70;0.32;;;;;;;20.93;94.62;101191.75;10417535;28;20109;-67
2023/07/19 16:32:26;;;;;;;0.40;0.30;;;;;;;21.12;95.72;101183.97;10405191;28;20512;-67
2023/07/19 16:37:27;;;;;;;0.30;0.20;;;;;;;21.04;96.61;101167.13;10422272;28;20056;-67
2023/07/19 16:42:28;;;;;;;0.95;0.38;;;;;;;21.13;96.53;101179.22;10384458;28;20045;-67
2023/07/19 16:47:28;;;;;;;0.90;0.35;;;;;;;21.58;95.75;101178.34;10425581;28;20056;-68
2023/07/19 16:52:29;;;;;;;0.25;0.20;;;;;;;21.81;95.23;101185.56;10418184;28;20037;-67
2023/07/19 16:57:29;;;;;;;1.65;0.25;;;;;;;21.32;95.18;101187.41;10454482;28;20056;-68
2023/07/19 17:02:30;;;;;;;0.30;0.30;;;;;;;20.68;97.88;101185.59;10420005;28;20033;-68
2023/07/19 17:07:30;;;;;;;1.08;0.40;;;;;;;19.99;100.00;101196.00;10394061;28;20041;-68
2023/07/19 17:12:31;;;;;;;1.52;0.20;;;;;;;19.79;100.00;101192.50;10436461;28;20060;-67
2023/07/19 17:17:32;;;;;;;0.10;0.10;;;;;;;19.94;100.00;101199.75;10418564;28;22310;-67
2023/07/19 17:22:32;;;;;;;0.95;0.22;;;;;;;19.63;100.00;101188.31;10402590;28;20029;-67
2023/07/19 17:27:33;;;;;;;0.20;0.20;;;;;;;19.54;100.00;101211.34;10402081;28;20056;-67
2023/07/19 17:32:33;;;;;;;0.88;0.50;;;;;;;19.32;100.00;101192.47;10408793;28;20029;-67
2023/07/19 17:37:34;;;;;;;0.73;0.40;;;;;;;19.14;100.00;101215.66;10418787;28;20067;-67
2023/07/19 17:42:35;;;;;;;0.77;0.28;;;;;;;19.04;100.00;101216.66;10418691;28;20033;-67
2023/07/19 17:47:35;;;;;;;0.30;0.20;;;;;;;18.92;100.00;101203.19;10411147;28;20037;-68
2023/07/19 17:52:36;;;;;;;0.40;0.30;;;;;;;19.13;100.00;101214.84;10417045;28;20055;-67
2023/07/19 17:57:37;;;;;;;0.90;0.20;;;;;;;18.88;100.00;101198.50;10416753;28;20554;-67
2023/07/19 18:02:37;;;;;;;0.30;0.20;;;;;;;19.05;100.00;101215.53;10401306;28;20033;-66
2023/07/19 18:07:38;;;;;;;0.85;0.40;;;;;;;18.99;100.00;101213.13;10450410;28;20119;-67
2023/07/19 18:12:38;;;;;;;0.57;0.30;;;;;;;18.76;100.00;101224.03;10389300;28;20400;-67
2023/07/19 18:17:39;;;;;;;0.40;0.28;;;;;;;18.72;100.00;101232.16;10390090;28;20037;-67
2023/07/19 18:22:40;;;;;;;0.55;0.30;;;;;;;18.59;100.00;101230.13;10391528;28;20497;-66
2023/07/19 18:27:40;;;;;;;0.20;0.20;;;;;;;18.56;100.00;101233.50;10432544;28;20044;-67
2023/07/19 18:32:41;;;;;;;0.73;0.38;;;;;;;18.35;100.00;101238.53;10433403;28;20642;-66
2023/07/19 18:37:41;;;;;;;3.28;0.73;;;;;;;18.20;100.00;101241.50;10432941;28;20037;-67
2023/07/19 18:42:43;;;;;;;1.02;0.35;;;;;;;18.00;100.00;101235.03;10432331;28;20033;-68
2023/07/19 18:47:44;;;;;;;0.45;0.30;;;;;;;17.92;100.00;101253.25;10432129;28;20044;-67
2023/07/19 18:52:45;;;;;;;0.88;0.45;;;;;;;17.66;100.00;101235.91;10415271;28;20504;-66
2023/07/19 18:57:45;;;;;;;1.30;0.30;;;;;;;17.62;100.00;101259.06;10450105;28;20029;-67
2023/07/19 19:02:46;;;;;;;0.70;0.40;;;;;;;17.49;100.00;101255.84;10416480;28;20489;-66
2023/07/19 19:07:50;;;;;;;1.90;0.63;;;;;;;17.38;100.00;101261.78;10449385;28;20033;-67
2023/07/19 19:12:50;;;;;;;0.70;0.45;;;;;;;16.75;100.00;101182.66;10409834;28;20064;-67
2023/07/19 19:17:51;;;;;;;1.00;0.60;;;;;;;17.25;100.00;101260.50;10447891;28;20033;-67
2023/07/19 19:22:51;;;;;;;1.15;0.50;;;;;;;17.13;100.00;101255.28;10427661;28;20057;-67
2023/07/19 19:27:52;;;;;;;0.88;0.40;;;;;;;17.10;100.00;101261.44;10403269;28;20044;-67
2023/07/19 19:32:52;;;;;;;1.15;0.60;;;;;;;17.08;100.00;101264.50;10423775;28;20052;-67
2023/07/19 19:37:53;;;;;;;0.55;0.40;;;;;;;17.03;100.00;101253.41;10389316;28;20059;-67
2023/07/19 19:42:55;;;;;;;0.50;0.35;;;;;;;16.96;100.00;101257.63;10437484;28;20037;-67
2023/07/19 19:47:56;;;;;;;0.82;0.50;;;;;;;16.95;100.00;101262.38;10421227;28;20052;-67
2023/07/19 19:52:57;;;;;;;2.10;0.80;;;;;;;16.87;100.00;101254.63;10403816;28;20100;-67
2023/07/19 19:57:57;;;;;;;2.50;0.93;;;;;;;16.84;100.00;101255.19;10427058;28;20067;-67
2023/07/19 20:02:58;;;;;;;1.13;0.80;;;;;;;16.78;100.00;101248.78;10386922;28;20109;-66
2023/07/19 20:08:01;;;;;;;2.65;1.25;;;;;;;16.62;100.00;101242.50;10398836;28;20674;-66
2023/07/19 20:13:02;;;;;;;2.08;0.50;;;;;;;16.57;100.00;101245.31;10395873;28;20041;-66
2023/07/19 20:18:03;;;;;;;1.27;0.77;;;;;;;16.60;100.00;101264.19;10397215;28;20079;-66
2023/07/19 20:23:03;;;;;;;1.50;0.57;;;;;;;16.54;100.00;101268.13;10396174;28;20029;-66
2023/07/19 20:28:04;;;;;;;1.50;0.70;;;;;;;16.56;100.00;101265.91;10364268;28;20041;-66
2023/07/19 20:33:05;;;;;;;1.00;0.75;;;;;;;16.52;100.00;101275.91;10395856;28;20117;-66
2023/07/19 20:38:06;;;;;;;2.47;1.00;;;;;;;16.45;100.00;101265.06;10382608;28;20052;-67
2023/07/19 20:43:07;;;;;;;2.83;1.00;;;;;;;16.41;100.00;101282.63;10394231;28;20492;-68
2023/07/19 20:48:08;;;;;;;0.90;0.65;;;;;;;16.36;100.00;101279.88;10415206;28;20045;-68
2023/07/19 20:53:09;;;;;;;2.38;0.95;;;;;;;16.27;100.00;101274.91;10417292;28;20037;-68
2023/07/19 20:58:09;;;;;;;1.58;0.85;;;;;;;16.14;100.00;101269.91;10418697;28;20049;-67
2023/07/19 21:03:11;;;;;;;2.55;1.85;;;;;;;16.10;100.00;101285.47;10417189;28;20033;-67
2023/07/19 21:08:11;;;;;;;1.88;1.00;;;;;;;16.05;100.00;101277.19;10406357;28;20052;-68
2023/07/19 21:13:12;;;;;;;1.45;1.27;;;;;;;16.06;100.00;101287.16;10398662;28;20429;-68
2023/07/19 21:18:13;;;;;;;1.80;1.30;;;;;;;16.07;100.00;101294.38;10406429;28;20052;-67
2023/07/19 21:23:13;;;;;;;2.33;1.30;;;;;;;15.91;100.00;101272.19;10403007;28;20045;-67
2023/07/19 21:28:14;;;;;;;4.13;1.58;;;;;;;15.97;100.00;101291.63;10402272;28;20059;-68
2023/07/19 21:33:14;;;;;;;4.63;2.58;;;;;;;15.79;100.00;101296.63;10396390;28;20025;-66
2023/07/19 21:38:15;;;;;;;1.98;1.35;;;;;;;15.77;100.00;101304.41;10394674;28;20050;-65
2023/07/19 21:43:16;;;;;;;2.55;1.40;;;;;;;15.68;100.00;101303.28;10367175;28;20052;-67
2023/07/19 21:48:16;;;;;;;3.33;1.77;;;;;;;15.60;100.00;101303.84;10368369;28;20489;-67
2023/07/19 21:53:17;;;;;;;3.47;1.63;;;;;;;15.52;100.00;101308.84;10414560;28;20512;-67
2023/07/19 21:58:18;;;;;;;2.80;1.83;;;;;;;15.48;100.00;101307.75;10415148;28;20056;-67
2023/07/19 22:03:19;;;;;;;2.08;1.65;;;;;;;15.41;100.00;101311.88;10432148;28;20044;-66
2023/07/19 22:08:22;;;;;;;2.45;1.90;;;;;;;15.29;100.00;101314.91;10406692;28;20032;-66
2023/07/19 22:13:23;;;;;;;2.88;1.77;;;;;;;15.15;100.00;101311.84;10414136;28;20047;-66
2023/07/19 22:18:27;;;;;;;3.17;2.45;;;;;;;15.09;100.00;101324.88;10431970;28;20068;-66
2023/07/19 22:23:27;;;;;;;2.85;2.47;;;;;;;14.99;100.00;101322.09;10399787;28;20075;-66
2023/07/19 22:28:28;;;;;;;3.40;2.80;;;;;;;14.84;100.00;101313.69;10425630;28;21197;-66
2023/07/19 22:33:28;;;;;;;5.95;2.97;;;;;;;14.81;100.00;101315.09;10399536;28;20104;-66
2023/07/19 22:38:29;;;;;;;4.68;2.53;;;;;;;14.82;100.00;101321.47;10432243;28;20033;-65
2023/07/19 22:43:29;;;;;;;4.88;3.50;;;;;;;14.76;100.00;101322.53;10399085;28;20067;-65
2023/07/19 22:48:30;;;;;;;4.20;3.22;;;;;;;14.70;100.00;101318.94;10414662;28;20041;-66